sensor_id;sensor_type;location;lat;lon;timestamp;pressure;altitude;pressure_sealevel;temperature;humidity
13661;BME280;6903;49.480;11.102;2023-04-08T00:01:29;58397.03;;;-141.35;100.00
13661;BME280;6903;49.480;11.102;2023-04-08T00:03:54;58397.03;;;-141.35;100.00
13661;BME280;6903;49.480;11.102;2023-04-08T00:06:20;58397.03;;;-141.35;100.00
13661;BME280;6903;49.480;11.102;2023-04-08T00:08:45;58397.03;;;-141.35;100.00
13661;BME280;6903;49.480;11.102;2023-04-08T00:11:10;58397.03;;;-141.35;100.00
13661;BME280;6903;49.480;11.102;2023-04-08T00:13:36;58397.03;;;-141.35;100.00
13661;BME280;6903;49.480;11.102;2023-04-08T00:16:01;58397.03;;;-141.35;100.00
13661;BME280;6903;49.480;11.102;2023-04-08T00:18:27;58397.03;;;-141.35;100.00
13661;BME280;6903;49.480;11.102;2023-04-08T00:20:53;58397.03;;;-141.35;100.00
13661;BME280;6903;49.480;11.102;2023-04-08T00:23:18;58397.03;;;-141.35;100.00
13661;BME280;6903;49.480;11.102;2023-04-08T00:25:45;58397.03;;;-141.35;100.00
13661;BME280;6903;49.480;11.102;2023-04-08T00:28:10;58397.03;;;-141.35;100.00
13661;BME280;6903;49.480;11.102;2023-04-08T00:30:36;58397.03;;;-141.35;100.00
13661;BME280;6903;49.480;11.102;2023-04-08T00:33:01;58397.03;;;-141.35;100.00
13661;BME280;6903;49.480;11.102;2023-04-08T00:35:26;58397.03;;;-141.35;100.00
13661;BME280;6903;49.480;11.102;2023-04-08T00:37:52;58397.03;;;-141.35;100.00
13661;BME280;6903;49.480;11.102;2023-04-08T00:40:17;58397.03;;;-141.35;100.00
13661;BME280;6903;49.480;11.102;2023-04-08T00:42:42;58397.03;;;-141.35;100.00
13661;BME280;6903;49.480;11.102;2023-04-08T00:45:08;58397.03;;;-141.35;100.00
13661;BME280;6903;49.480;11.102;2023-04-08T00:47:35;58397.03;;;-141.35;100.00
13661;BME280;6903;49.480;11.102;2023-04-08T00:50:00;58397.03;;;-141.35;100.00
13661;BME280;6903;49.480;11.102;2023-04-08T00:52:25;58397.03;;;-141.35;100.00
13661;BME280;6903;49.480;11.102;2023-04-08T00:54:50;58397.03;;;-141.35;100.00
13661;BME280;6903;49.480;11.102;2023-04-08T00:57:16;58397.03;;;-141.35;100.00
13661;BME280;6903;49.480;11.102;2023-04-08T00:59:41;58397.03;;;-141.35;100.00
13661;BME280;6903;49.480;11.102;2023-04-08T01:02:18;58397.03;;;-141.35;100.00
13661;BME280;6903;49.480;11.102;2023-04-08T01:07:28;58397.03;;;-141.35;100.00
13661;BME280;6903;49.480;11.102;2023-04-08T01:09:58;58397.03;;;-141.35;100.00
13661;BME280;6903;49.480;11.102;2023-04-08T01:12:28;58397.03;;;-141.35;100.00
13661;BME280;6903;49.480;11.102;2023-04-08T01:15:04;58397.03;;;-141.35;100.00
13661;BME280;6903;49.480;11.102;2023-04-08T01:17:31;58397.03;;;-141.35;100.00
13661;BME280;6903;49.480;11.102;2023-04-08T01:19:59;58397.03;;;-141.35;100.00
13661;BME280;6903;49.480;11.102;2023-04-08T01:23:03;58397.03;;;-141.35;100.00
13661;BME280;6903;49.480;11.102;2023-04-08T01:25:36;58397.03;;;-141.35;100.00
13661;BME280;6903;49.480;11.102;2023-04-08T01:28:09;58397.03;;;-141.35;100.00
13661;BME280;6903;49.480;11.102;2023-04-08T01:30:37;58397.03;;;-141.35;100.00
13661;BME280;6903;49.480;11.102;2023-04-08T01:33:02;58397.03;;;-141.35;100.00
13661;BME280;6903;49.480;11.102;2023-04-08T01:35:30;58397.03;;;-141.35;100.00
13661;BME280;6903;49.480;11.102;2023-04-08T01:37:56;58397.03;;;-141.35;100.00
13661;BME280;6903;49.480;11.102;2023-04-08T01:40:22;58397.03;;;-141.35;100.00
13661;BME280;6903;49.480;11.102;2023-04-08T01:42:48;58397.03;;;-141.35;100.00
13661;BME280;6903;49.480;11.102;2023-04-08T01:45:15;58397.03;;;-141.35;100.00
13661;BME280;6903;49.480;11.102;2023-04-08T01:47:42;58397.03;;;-141.35;100.00
13661;BME280;6903;49.480;11.102;2023-04-08T01:50:09;58397.03;;;-141.35;100.00
13661;BME280;6903;49.480;11.102;2023-04-08T01:52:36;58397.03;;;-141.35;100.00
13661;BME280;6903;49.480;11.102;2023-04-08T01:55:03;58397.03;;;-141.35;100.00
13661;BME280;6903;49.480;11.102;2023-04-08T01:57:31;58397.03;;;-141.35;100.00
13661;BME280;6903;49.480;11.102;2023-04-08T02:00:02;58397.03;;;-141.35;100.00
13661;BME280;6903;49.480;11.102;2023-04-08T02:02:31;58397.03;;;-141.35;100.00
13661;BME280;6903;49.480;11.102;2023-04-08T02:04:57;58397.03;;;-141.35;100.00
13661;BME280;6903;49.480;11.102;2023-04-08T02:07:22;58397.03;;;-141.35;100.00
13661;BME280;6903;49.480;11.102;2023-04-08T02:09:49;58397.03;;;-141.35;100.00
13661;BME280;6903;49.480;11.102;2023-04-08T02:12:14;58397.03;;;-141.35;100.00
13661;BME280;6903;49.480;11.102;2023-04-08T02:14:39;58397.03;;;-141.35;100.00
13661;BME280;6903;49.480;11.102;2023-04-08T02:17:12;58397.03;;;-141.35;100.00
13661;BME280;6903;49.480;11.102;2023-04-08T02:19:45;58397.03;;;-141.35;100.00
13661;BME280;6903;49.480;11.102;2023-04-08T02:22:17;58397.03;;;-141.35;100.00
13661;BME280;6903;49.480;11.102;2023-04-08T02:24:44;58397.03;;;-141.35;100.00
13661;BME280;6903;49.480;11.102;2023-04-08T02:27:10;58397.03;;;-141.35;100.00
13661;BME280;6903;49.480;11.102;2023-04-08T02:29:39;58397.03;;;-141.35;100.00
13661;BME280;6903;49.480;11.102;2023-04-08T02:32:05;58397.03;;;-141.35;100.00
13661;BME280;6903;49.480;11.102;2023-04-08T02:34:31;58397.03;;;-141.35;100.00
13661;BME280;6903;49.480;11.102;2023-04-08T02:36:57;58397.03;;;-141.35;100.00
13661;BME280;6903;49.480;11.102;2023-04-08T02:39:30;58397.03;;;-141.35;100.00
13661;BME280;6903;49.480;11.102;2023-04-08T02:41:55;58397.03;;;-141.35;100.00
13661;BME280;6903;49.480;11.102;2023-04-08T02:44:21;58397.03;;;-141.35;100.00
13661;BME280;6903;49.480;11.102;2023-04-08T02:46:46;58397.03;;;-141.35;100.00
13661;BME280;6903;49.480;11.102;2023-04-08T02:49:11;58397.03;;;-141.35;100.00
13661;BME280;6903;49.480;11.102;2023-04-08T02:51:37;58397.03;;;-141.35;100.00
13661;BME280;6903;49.480;11.102;2023-04-08T02:54:02;58397.03;;;-141.35;100.00
13661;BME280;6903;49.480;11.102;2023-04-08T02:56:27;58397.03;;;-141.35;100.00
13661;BME280;6903;49.480;11.102;2023-04-08T02:58:53;58397.03;;;-141.35;100.00
13661;BME280;6903;49.480;11.102;2023-04-08T03:01:19;58397.03;;;-141.35;100.00
13661;BME280;6903;49.480;11.102;2023-04-08T03:03:44;58397.03;;;-141.35;100.00
13661;BME280;6903;49.480;11.102;2023-04-08T03:06:09;58397.03;;;-141.35;100.00
13661;BME280;6903;49.480;11.102;2023-04-08T03:08:35;58397.03;;;-141.35;100.00
13661;BME280;6903;49.480;11.102;2023-04-08T03:11:00;58397.03;;;-141.35;100.00
13661;BME280;6903;49.480;11.102;2023-04-08T03:13:26;58397.03;;;-141.35;100.00
13661;BME280;6903;49.480;11.102;2023-04-08T03:15:51;58397.03;;;-141.35;100.00
13661;BME280;6903;49.480;11.102;2023-04-08T03:18:16;58397.03;;;-141.35;100.00
13661;BME280;6903;49.480;11.102;2023-04-08T03:20:42;58397.03;;;-141.35;100.00
13661;BME280;6903;49.480;11.102;2023-04-08T03:23:07;58397.03;;;-141.35;100.00
13661;BME280;6903;49.480;11.102;2023-04-08T03:25:32;58397.03;;;-141.35;100.00
13661;BME280;6903;49.480;11.102;2023-04-08T03:27:57;58397.03;;;-141.35;100.00
13661;BME280;6903;49.480;11.102;2023-04-08T03:30:23;58397.03;;;-141.35;100.00
13661;BME280;6903;49.480;11.102;2023-04-08T03:32:48;58397.03;;;-141.35;100.00
13661;BME280;6903;49.480;11.102;2023-04-08T03:35:13;58397.03;;;-141.35;100.00
13661;BME280;6903;49.480;11.102;2023-04-08T03:37:39;58397.03;;;-141.35;100.00
13661;BME280;6903;49.480;11.102;2023-04-08T03:40:05;58397.03;;;-141.35;100.00
13661;BME280;6903;49.480;11.102;2023-04-08T03:42:30;58397.03;;;-141.35;100.00
13661;BME280;6903;49.480;11.102;2023-04-08T03:44:56;58397.03;;;-141.35;100.00
13661;BME280;6903;49.480;11.102;2023-04-08T03:47:21;58397.03;;;-141.35;100.00
13661;BME280;6903;49.480;11.102;2023-04-08T03:49:46;58397.03;;;-141.35;100.00
13661;BME280;6903;49.480;11.102;2023-04-08T03:52:12;58397.03;;;-141.35;100.00
13661;BME280;6903;49.480;11.102;2023-04-08T03:54:37;58397.03;;;-141.35;100.00
13661;BME280;6903;49.480;11.102;2023-04-08T03:57:02;58397.03;;;-141.35;100.00
13661;BME280;6903;49.480;11.102;2023-04-08T03:59:28;58397.03;;;-141.35;100.00
13661;BME280;6903;49.480;11.102;2023-04-08T04:01:53;58397.03;;;-141.35;100.00
13661;BME280;6903;49.480;11.102;2023-04-08T04:04:18;58397.03;;;-141.35;100.00
13661;BME280;6903;49.480;11.102;2023-04-08T04:06:44;58397.03;;;-141.35;100.00
13661;BME280;6903;49.480;11.102;2023-04-08T04:09:09;58397.03;;;-141.35;100.00
13661;BME280;6903;49.480;11.102;2023-04-08T04:11:35;58397.03;;;-141.35;100.00
13661;BME280;6903;49.480;11.102;2023-04-08T04:14:00;58397.03;;;-141.35;100.00
13661;BME280;6903;49.480;11.102;2023-04-08T04:16:26;58397.03;;;-141.35;100.00
13661;BME280;6903;49.480;11.102;2023-04-08T04:18:51;58397.03;;;-141.35;100.00
13661;BME280;6903;49.480;11.102;2023-04-08T04:21:17;58397.03;;;-141.35;100.00
13661;BME280;6903;49.480;11.102;2023-04-08T04:23:42;58397.03;;;-141.35;100.00
13661;BME280;6903;49.480;11.102;2023-04-08T04:26:08;58397.03;;;-141.35;100.00
13661;BME280;6903;49.480;11.102;2023-04-08T04:28:34;58397.03;;;-141.35;100.00
13661;BME280;6903;49.480;11.102;2023-04-08T04:31:00;58397.03;;;-141.35;100.00
13661;BME280;6903;49.480;11.102;2023-04-08T04:33:25;58397.03;;;-141.35;100.00
13661;BME280;6903;49.480;11.102;2023-04-08T04:35:51;58397.03;;;-141.35;100.00
13661;BME280;6903;49.480;11.102;2023-04-08T04:38:16;58397.03;;;-141.35;100.00
13661;BME280;6903;49.480;11.102;2023-04-08T04:40:41;58397.03;;;-141.35;100.00
13661;BME280;6903;49.480;11.102;2023-04-08T04:43:08;58397.03;;;-141.35;100.00
13661;BME280;6903;49.480;11.102;2023-04-08T04:45:33;58397.03;;;-141.35;100.00
13661;BME280;6903;49.480;11.102;2023-04-08T04:47:59;58397.03;;;-141.35;100.00
13661;BME280;6903;49.480;11.102;2023-04-08T04:50:24;58397.03;;;-141.35;100.00
13661;BME280;6903;49.480;11.102;2023-04-08T04:52:50;58397.03;;;-141.35;100.00
13661;BME280;6903;49.480;11.102;2023-04-08T04:55:15;58397.03;;;-141.35;100.00
13661;BME280;6903;49.480;11.102;2023-04-08T04:57:40;58397.03;;;-141.35;100.00
13661;BME280;6903;49.480;11.102;2023-04-08T05:00:06;58397.03;;;-141.35;100.00
13661;BME280;6903;49.480;11.102;2023-04-08T05:02:32;58397.03;;;-141.35;100.00
13661;BME280;6903;49.480;11.102;2023-04-08T05:04:58;58397.03;;;-141.35;100.00
13661;BME280;6903;49.480;11.102;2023-04-08T05:07:23;58397.03;;;-141.35;100.00
13661;BME280;6903;49.480;11.102;2023-04-08T05:09:48;58397.03;;;-141.35;100.00
13661;BME280;6903;49.480;11.102;2023-04-08T05:12:14;58397.03;;;-141.35;100.00
13661;BME280;6903;49.480;11.102;2023-04-08T05:14:40;58397.03;;;-141.35;100.00
13661;BME280;6903;49.480;11.102;2023-04-08T05:17:06;58397.03;;;-141.35;100.00
13661;BME280;6903;49.480;11.102;2023-04-08T05:19:31;58397.03;;;-141.35;100.00
13661;BME280;6903;49.480;11.102;2023-04-08T05:21:56;58397.03;;;-141.35;100.00
13661;BME280;6903;49.480;11.102;2023-04-08T05:24:22;58397.03;;;-141.35;100.00
13661;BME280;6903;49.480;11.102;2023-04-08T05:26:47;58397.03;;;-141.35;100.00
13661;BME280;6903;49.480;11.102;2023-04-08T05:29:16;58397.03;;;-141.35;100.00
13661;BME280;6903;49.480;11.102;2023-04-08T05:31:42;58397.03;;;-141.35;100.00
13661;BME280;6903;49.480;11.102;2023-04-08T05:34:08;58397.03;;;-141.35;100.00
13661;BME280;6903;49.480;11.102;2023-04-08T05:36:34;58397.03;;;-141.35;100.00
13661;BME280;6903;49.480;11.102;2023-04-08T05:38:59;58397.03;;;-141.35;100.00
13661;BME280;6903;49.480;11.102;2023-04-08T05:41:25;58397.03;;;-141.35;100.00
13661;BME280;6903;49.480;11.102;2023-04-08T05:43:50;58397.03;;;-141.35;100.00
13661;BME280;6903;49.480;11.102;2023-04-08T05:46:15;58397.03;;;-141.35;100.00
13661;BME280;6903;49.480;11.102;2023-04-08T05:48:41;58397.03;;;-141.35;100.00
13661;BME280;6903;49.480;11.102;2023-04-08T05:51:12;58397.03;;;-141.35;100.00
13661;BME280;6903;49.480;11.102;2023-04-08T05:53:37;58397.03;;;-141.35;100.00
13661;BME280;6903;49.480;11.102;2023-04-08T05:56:03;58397.03;;;-141.35;100.00
13661;BME280;6903;49.480;11.102;2023-04-08T05:58:28;58397.03;;;-141.35;100.00
13661;BME280;6903;49.480;11.102;2023-04-08T06:00:53;58397.03;;;-141.35;100.00
13661;BME280;6903;49.480;11.102;2023-04-08T06:03:19;58397.03;;;-141.35;100.00
13661;BME280;6903;49.480;11.102;2023-04-08T06:05:44;58397.03;;;-141.35;100.00
13661;BME280;6903;49.480;11.102;2023-04-08T06:08:10;58397.03;;;-141.35;100.00
13661;BME280;6903;49.480;11.102;2023-04-08T06:10:35;58397.03;;;-141.35;100.00
13661;BME280;6903;49.480;11.102;2023-04-08T06:13:00;58397.03;;;-141.35;100.00
13661;BME280;6903;49.480;11.102;2023-04-08T06:15:26;58397.03;;;-141.35;100.00
13661;BME280;6903;49.480;11.102;2023-04-08T06:17:52;58397.03;;;-141.35;100.00
13661;BME280;6903;49.480;11.102;2023-04-08T06:20:17;58397.03;;;-141.35;100.00
13661;BME280;6903;49.480;11.102;2023-04-08T06:22:42;58397.03;;;-141.35;100.00
13661;BME280;6903;49.480;11.102;2023-04-08T06:25:08;58397.03;;;-141.35;100.00
13661;BME280;6903;49.480;11.102;2023-04-08T06:27:33;58397.03;;;-141.35;100.00
13661;BME280;6903;49.480;11.102;2023-04-08T06:29:58;58397.03;;;-141.35;100.00
13661;BME280;6903;49.480;11.102;2023-04-08T06:32:23;58397.03;;;-141.35;100.00
13661;BME280;6903;49.480;11.102;2023-04-08T06:34:49;58397.03;;;-141.35;100.00
13661;BME280;6903;49.480;11.102;2023-04-08T06:37:14;58397.03;;;-141.35;100.00
13661;BME280;6903;49.480;11.102;2023-04-08T06:39:39;58397.03;;;-141.35;100.00
13661;BME280;6903;49.480;11.102;2023-04-08T06:42:05;58397.03;;;-141.35;100.00
13661;BME280;6903;49.480;11.102;2023-04-08T06:44:31;58397.03;;;-141.35;100.00
13661;BME280;6903;49.480;11.102;2023-04-08T06:46:56;58397.03;;;-141.35;100.00
13661;BME280;6903;49.480;11.102;2023-04-08T06:49:21;58397.03;;;-141.35;100.00
13661;BME280;6903;49.480;11.102;2023-04-08T06:51:47;58397.03;;;-141.35;100.00
13661;BME280;6903;49.480;11.102;2023-04-08T06:54:12;58397.03;;;-141.35;100.00
13661;BME280;6903;49.480;11.102;2023-04-08T06:56:38;58397.03;;;-141.35;100.00
13661;BME280;6903;49.480;11.102;2023-04-08T06:59:03;58397.03;;;-141.35;100.00
13661;BME280;6903;49.480;11.102;2023-04-08T07:01:29;58397.03;;;-141.35;100.00
13661;BME280;6903;49.480;11.102;2023-04-08T07:03:54;58397.03;;;-141.35;100.00
13661;BME280;6903;49.480;11.102;2023-04-08T07:06:20;58397.03;;;-141.35;100.00
13661;BME280;6903;49.480;11.102;2023-04-08T07:08:46;58397.03;;;-141.35;100.00
13661;BME280;6903;49.480;11.102;2023-04-08T07:11:11;58397.03;;;-141.35;100.00
13661;BME280;6903;49.480;11.102;2023-04-08T07:13:36;58397.03;;;-141.35;100.00
13661;BME280;6903;49.480;11.102;2023-04-08T07:16:02;58397.03;;;-141.35;100.00
13661;BME280;6903;49.480;11.102;2023-04-08T07:18:27;58397.03;;;-141.35;100.00
13661;BME280;6903;49.480;11.102;2023-04-08T07:20:53;58397.03;;;-141.35;100.00
13661;BME280;6903;49.480;11.102;2023-04-08T07:23:19;58397.03;;;-141.35;100.00
13661;BME280;6903;49.480;11.102;2023-04-08T07:25:44;58397.03;;;-141.35;100.00
13661;BME280;6903;49.480;11.102;2023-04-08T07:28:10;58397.03;;;-141.35;100.00
13661;BME280;6903;49.480;11.102;2023-04-08T07:30:36;58397.03;;;-141.35;100.00
13661;BME280;6903;49.480;11.102;2023-04-08T07:33:01;58397.03;;;-141.35;100.00
13661;BME280;6903;49.480;11.102;2023-04-08T07:35:27;58397.03;;;-141.35;100.00
13661;BME280;6903;49.480;11.102;2023-04-08T07:37:52;58397.03;;;-141.35;100.00
13661;BME280;6903;49.480;11.102;2023-04-08T07:40:17;58397.03;;;-141.35;100.00
13661;BME280;6903;49.480;11.102;2023-04-08T07:42:43;58397.03;;;-141.35;100.00
13661;BME280;6903;49.480;11.102;2023-04-08T07:45:08;58397.03;;;-141.35;100.00
13661;BME280;6903;49.480;11.102;2023-04-08T07:47:34;58397.03;;;-141.35;100.00
13661;BME280;6903;49.480;11.102;2023-04-08T07:49:59;58397.03;;;-141.35;100.00
13661;BME280;6903;49.480;11.102;2023-04-08T07:52:25;58397.03;;;-141.35;100.00
13661;BME280;6903;49.480;11.102;2023-04-08T07:54:50;58397.03;;;-141.35;100.00
13661;BME280;6903;49.480;11.102;2023-04-08T07:57:15;58397.03;;;-141.35;100.00
13661;BME280;6903;49.480;11.102;2023-04-08T07:59:41;58397.03;;;-141.35;100.00
13661;BME280;6903;49.480;11.102;2023-04-08T08:02:06;58397.03;;;-141.35;100.00
13661;BME280;6903;49.480;11.102;2023-04-08T08:04:31;58397.03;;;-141.35;100.00
13661;BME280;6903;49.480;11.102;2023-04-08T08:06:57;58397.03;;;-141.35;100.00
13661;BME280;6903;49.480;11.102;2023-04-08T08:09:22;58397.03;;;-141.35;100.00
13661;BME280;6903;49.480;11.102;2023-04-08T08:11:47;58397.03;;;-141.35;100.00
13661;BME280;6903;49.480;11.102;2023-04-08T08:14:13;58397.03;;;-141.35;100.00
13661;BME280;6903;49.480;11.102;2023-04-08T08:16:38;58397.03;;;-141.35;100.00
13661;BME280;6903;49.480;11.102;2023-04-08T08:19:04;58397.03;;;-141.35;100.00
13661;BME280;6903;49.480;11.102;2023-04-08T08:21:31;58397.03;;;-141.35;100.00
13661;BME280;6903;49.480;11.102;2023-04-08T08:23:57;58397.03;;;-141.35;100.00
13661;BME280;6903;49.480;11.102;2023-04-08T08:26:24;58397.03;;;-141.35;100.00
13661;BME280;6903;49.480;11.102;2023-04-08T08:28:49;58397.03;;;-141.35;100.00
13661;BME280;6903;49.480;11.102;2023-04-08T08:31:14;58397.03;;;-141.35;100.00
13661;BME280;6903;49.480;11.102;2023-04-08T08:33:40;58397.03;;;-141.35;100.00
13661;BME280;6903;49.480;11.102;2023-04-08T08:36:05;58397.03;;;-141.35;100.00
13661;BME280;6903;49.480;11.102;2023-04-08T08:38:31;58397.03;;;-141.35;100.00
13661;BME280;6903;49.480;11.102;2023-04-08T08:40:59;58397.03;;;-141.35;100.00
13661;BME280;6903;49.480;11.102;2023-04-08T08:43:25;58397.03;;;-141.35;100.00
13661;BME280;6903;49.480;11.102;2023-04-08T08:45:53;58397.03;;;-141.35;100.00
13661;BME280;6903;49.480;11.102;2023-04-08T08:48:26;98317.59;;;6.37;100.00
13661;BME280;6903;49.480;11.102;2023-04-08T08:50:51;98320.97;;;6.39;100.00
13661;BME280;6903;49.480;11.102;2023-04-08T08:53:17;98322.09;;;6.49;100.00
13661;BME280;6903;49.480;11.102;2023-04-08T08:55:43;98320.38;;;6.64;100.00
13661;BME280;6903;49.480;11.102;2023-04-08T08:58:09;98319.97;;;6.71;100.00
13661;BME280;6903;49.480;11.102;2023-04-08T09:00:36;98323.31;;;6.73;100.00
13661;BME280;6903;49.480;11.102;2023-04-08T09:03:23;98319.81;;;6.88;100.00
13661;BME280;6903;49.480;11.102;2023-04-08T09:05:56;98329.59;;;7.00;100.00
13661;BME280;6903;49.480;11.102;2023-04-08T09:08:32;98331.47;;;7.12;100.00
13661;BME280;6903;49.480;11.102;2023-04-08T09:11:12;98326.69;;;7.19;100.00
13661;BME280;6903;49.480;11.102;2023-04-08T09:13:38;98329.31;;;7.33;100.00
13661;BME280;6903;49.480;11.102;2023-04-08T09:16:06;98326.44;;;7.38;100.00
13661;BME280;6903;49.480;11.102;2023-04-08T09:18:34;98333.84;;;7.31;100.00
13661;BME280;6903;49.480;11.102;2023-04-08T09:21:01;98332.13;;;7.30;100.00
13661;BME280;6903;49.480;11.102;2023-04-08T09:23:47;98340.28;;;7.26;100.00
13661;BME280;6903;49.480;11.102;2023-04-08T09:26:16;98333.22;;;7.12;100.00
13661;BME280;6903;49.480;11.102;2023-04-08T09:28:42;98337.84;;;7.08;100.00
13661;BME280;6903;49.480;11.102;2023-04-08T09:33:45;98339.41;;;6.97;100.00
13661;BME280;6903;49.480;11.102;2023-04-08T09:36:11;98349.03;;;6.96;100.00
13661;BME280;6903;49.480;11.102;2023-04-08T09:38:37;98342.59;;;7.02;100.00
13661;BME280;6903;49.480;11.102;2023-04-08T09:41:05;98342.31;;;7.06;100.00
13661;BME280;6903;49.480;11.102;2023-04-08T09:43:33;98350.66;;;7.13;100.00
13661;BME280;6903;49.480;11.102;2023-04-08T09:46:01;98343.38;;;7.18;100.00
13661;BME280;6903;49.480;11.102;2023-04-08T09:48:31;98347.22;;;7.27;100.00
13661;BME280;6903;49.480;11.102;2023-04-08T09:51:02;98347.06;;;7.30;100.00
13661;BME280;6903;49.480;11.102;2023-04-08T09:53:37;98344.06;;;7.36;100.00
13661;BME280;6903;49.480;11.102;2023-04-08T09:56:11;98348.53;;;7.48;100.00
13661;BME280;6903;49.480;11.102;2023-04-08T09:58:53;98344.44;;;7.58;100.00
13661;BME280;6903;49.480;11.102;2023-04-08T10:01:25;98345.72;;;7.51;100.00
13661;BME280;6903;49.480;11.102;2023-04-08T10:03:53;98349.47;;;7.61;100.00
13661;BME280;6903;49.480;11.102;2023-04-08T10:06:21;98345.81;;;7.77;100.00
13661;BME280;6903;49.480;11.102;2023-04-08T10:08:52;98346.63;;;8.06;100.00
13661;BME280;6903;49.480;11.102;2023-04-08T10:11:17;98347.25;;;8.37;100.00
13661;BME280;6903;49.480;11.102;2023-04-08T10:13:43;98350.50;;;8.68;100.00
13661;BME280;6903;49.480;11.102;2023-04-08T10:16:21;98350.25;;;8.97;100.00
13661;BME280;6903;49.480;11.102;2023-04-08T10:18:49;98347.47;;;9.13;100.00
13661;BME280;6903;49.480;11.102;2023-04-08T10:21:41;98345.16;;;9.21;100.00
13661;BME280;6903;49.480;11.102;2023-04-08T10:24:14;98347.78;;;9.21;100.00
13661;BME280;6903;49.480;11.102;2023-04-08T10:26:40;98341.47;;;9.23;100.00
13661;BME280;6903;49.480;11.102;2023-04-08T10:31:47;98344.72;;;9.27;100.00
13661;BME280;6903;49.480;11.102;2023-04-08T10:34:23;98336.19;;;9.11;100.00
13661;BME280;6903;49.480;11.102;2023-04-08T10:36:52;98337.69;;;9.15;100.00
13661;BME280;6903;49.480;11.102;2023-04-08T10:39:18;98340.81;;;9.20;100.00
13661;BME280;6903;49.480;11.102;2023-04-08T10:41:48;98329.91;;;9.26;100.00
13661;BME280;6903;49.480;11.102;2023-04-08T10:44:24;98334.19;;;9.39;100.00
13661;BME280;6903;49.480;11.102;2023-04-08T10:46:51;98337.69;;;9.52;100.00
13661;BME280;6903;49.480;11.102;2023-04-08T10:49:18;98346.09;;;9.57;100.00
13661;BME280;6903;49.480;11.102;2023-04-08T10:51:44;98345.78;;;9.49;100.00
13661;BME280;6903;49.480;11.102;2023-04-08T10:54:15;98340.50;;;9.62;100.00
13661;BME280;6903;49.480;11.102;2023-04-08T10:56:49;98339.56;;;9.75;100.00
13661;BME280;6903;49.480;11.102;2023-04-08T10:59:29;98339.66;;;9.86;100.00
13661;BME280;6903;49.480;11.102;2023-04-08T11:01:56;98329.72;;;10.02;100.00
13661;BME280;6903;49.480;11.102;2023-04-08T11:04:22;98333.31;;;10.14;100.00
13661;BME280;6903;49.480;11.102;2023-04-08T11:06:48;98325.47;;;10.25;100.00
13661;BME280;6903;49.480;11.102;2023-04-08T11:09:14;98325.00;;;10.31;100.00
13661;BME280;6903;49.480;11.102;2023-04-08T11:11:41;98333.75;;;10.55;100.00
13661;BME280;6903;49.480;11.102;2023-04-08T11:14:07;98326.16;;;10.98;100.00
13661;BME280;6903;49.480;11.102;2023-04-08T11:16:33;98330.34;;;11.46;100.00
13661;BME280;6903;49.480;11.102;2023-04-08T11:19:01;98333.28;;;11.76;100.00
13661;BME280;6903;49.480;11.102;2023-04-08T11:21:27;98330.19;;;11.82;100.00
13661;BME280;6903;49.480;11.102;2023-04-08T11:23:53;98332.34;;;11.77;100.00
13661;BME280;6903;49.480;11.102;2023-04-08T11:26:20;98333.75;;;11.70;100.00
13661;BME280;6903;49.480;11.102;2023-04-08T11:28:45;98335.75;;;11.56;100.00
13661;BME280;6903;49.480;11.102;2023-04-08T11:31:13;98340.91;;;11.46;100.00
13661;BME280;6903;49.480;11.102;2023-04-08T11:33:44;98323.09;;;11.26;100.00
13661;BME280;6903;49.480;11.102;2023-04-08T11:36:11;98331.34;;;11.10;100.00
13661;BME280;6903;49.480;11.102;2023-04-08T11:38:38;98333.00;;;11.00;100.00
13661;BME280;6903;49.480;11.102;2023-04-08T11:41:05;98327.91;;;10.86;100.00
13661;BME280;6903;49.480;11.102;2023-04-08T11:43:30;98327.91;;;10.86;100.00
13661;BME280;6903;49.480;11.102;2023-04-08T11:45:56;98326.13;;;10.87;100.00
13661;BME280;6903;49.480;11.102;2023-04-08T11:48:21;98325.91;;;10.90;100.00
13661;BME280;6903;49.480;11.102;2023-04-08T11:51:01;98322.41;;;10.89;100.00
13661;BME280;6903;49.480;11.102;2023-04-08T11:53:27;98322.06;;;10.94;100.00
13661;BME280;6903;49.480;11.102;2023-04-08T11:55:52;98325.47;;;11.18;100.00
13661;BME280;6903;49.480;11.102;2023-04-08T11:58:18;98335.75;;;11.56;100.00
13661;BME280;6903;49.480;11.102;2023-04-08T12:00:43;98328.81;;;11.99;100.00
13661;BME280;6903;49.480;11.102;2023-04-08T12:03:10;98320.09;;;12.41;100.00
13661;BME280;6903;49.480;11.102;2023-04-08T12:05:35;98316.09;;;12.57;100.00
13661;BME280;6903;49.480;11.102;2023-04-08T12:08:01;98324.97;;;12.56;100.00
13661;BME280;6903;49.480;11.102;2023-04-08T12:10:26;98318.88;;;12.56;100.00
13661;BME280;6903;49.480;11.102;2023-04-08T12:12:52;98323.56;;;12.52;100.00
13661;BME280;6903;49.480;11.102;2023-04-08T12:15:17;98320.78;;;12.54;100.00
13661;BME280;6903;49.480;11.102;2023-04-08T12:17:43;98319.53;;;12.26;100.00
13661;BME280;6903;49.480;11.102;2023-04-08T12:20:09;98326.78;;;12.13;100.00
13661;BME280;6903;49.480;11.102;2023-04-08T12:22:35;98322.97;;;12.06;100.00
13661;BME280;6903;49.480;11.102;2023-04-08T12:25:00;98326.56;;;11.94;100.00
13661;BME280;6903;49.480;11.102;2023-04-08T12:27:27;98327.03;;;11.88;100.00
13661;BME280;6903;49.480;11.102;2023-04-08T12:29:52;98324.78;;;11.84;100.00
13661;BME280;6903;49.480;11.102;2023-04-08T12:32:18;98323.06;;;11.83;100.00
13661;BME280;6903;49.480;11.102;2023-04-08T12:34:43;98331.38;;;11.78;100.00
13661;BME280;6903;49.480;11.102;2023-04-08T12:37:08;98324.16;;;11.69;100.00
13661;BME280;6903;49.480;11.102;2023-04-08T12:39:34;98326.69;;;11.71;100.00
13661;BME280;6903;49.480;11.102;2023-04-08T12:41:59;98329.69;;;11.66;100.00
13661;BME280;6903;49.480;11.102;2023-04-08T12:44:25;98333.03;;;11.68;100.00